sensor_id;sensor_type;location;lat;lon;timestamp;pressure;altitude;pressure_sealevel;temperature;humidity
58534;BME280;44109;52.398;7.024;2022-07-24T00:00:30;101732.38;;;17.08;80.94
58534;BME280;44109;52.398;7.024;2022-07-24T00:02:58;101723.56;;;17.10;81.00
58534;BME280;44109;52.398;7.024;2022-07-24T00:05:25;101723.97;;;17.08;81.04
58534;BME280;44109;52.398;7.024;2022-07-24T00:07:54;101726.38;;;17.10;81.15
58534;BME280;44109;52.398;7.024;2022-07-24T00:10:22;101722.75;;;17.06;81.27
58534;BME280;44109;52.398;7.024;2022-07-24T00:12:50;101720.34;;;17.08;81.20
58534;BME280;44109;52.398;7.024;2022-07-24T00:15:18;101719.16;;;17.09;81.16
58534;BME280;44109;52.398;7.024;2022-07-24T00:17:45;101725.16;;;17.04;81.13
58534;BME280;44109;52.398;7.024;2022-07-24T00:20:13;101719.53;;;17.04;81.32
58534;BME280;44109;52.398;7.024;2022-07-24T00:22:41;101719.13;;;17.02;81.00
58534;BME280;44109;52.398;7.024;2022-07-24T00:25:10;101723.94;;;17.05;81.42
58534;BME280;44109;52.398;7.024;2022-07-24T00:27:37;101716.69;;;16.96;81.34
58534;BME280;44109;52.398;7.024;2022-07-24T00:30:06;101725.91;;;17.01;81.43
58534;BME280;44109;52.398;7.024;2022-07-24T00:32:34;101719.13;;;17.02;81.38
58534;BME280;44109;52.398;7.024;2022-07-24T00:35:03;101711.88;;;16.97;81.08
58534;BME280;44109;52.398;7.024;2022-07-24T00:37:31;101710.69;;;16.98;81.04
58534;BME280;44109;52.398;7.024;2022-07-24T00:39:58;101699.88;;;16.96;80.99
58534;BME280;44109;52.398;7.024;2022-07-24T00:42:27;101704.66;;;16.96;81.57
58534;BME280;44109;52.398;7.024;2022-07-24T00:44:54;101708.66;;;16.91;81.67
58534;BME280;44109;52.398;7.024;2022-07-24T00:47:22;101698.66;;;16.90;81.56
58534;BME280;44109;52.398;7.024;2022-07-24T00:49:50;101708.66;;;16.91;81.69
58534;BME280;44109;52.398;7.024;2022-07-24T00:52:17;101713.03;;;16.89;81.79
58534;BME280;44109;52.398;7.024;2022-07-24T00:54:45;101707.81;;;16.87;81.45
58534;BME280;44109;52.398;7.024;2022-07-24T00:57:13;101702.63;;;16.89;81.50
58534;BME280;44109;52.398;7.024;2022-07-24T00:59:41;101714.22;;;16.88;81.64
58534;BME280;44109;52.398;7.024;2022-07-24T01:02:09;101706.59;;;16.85;81.79
58534;BME280;44109;52.398;7.024;2022-07-24T01:04:38;101702.59;;;16.82;81.98
58534;BME280;44109;52.398;7.024;2022-07-24T01:07:06;101705.41;;;16.82;81.72
58534;BME280;44109;52.398;7.024;2022-07-24T01:09:35;101704.56;;;16.78;81.63
58534;BME280;44109;52.398;7.024;2022-07-24T01:12:04;101703.72;;;16.74;81.85
58534;BME280;44109;52.398;7.024;2022-07-24T01:14:32;101698.94;;;16.74;82.02
58534;BME280;44109;52.398;7.024;2022-07-24T01:17:01;101694.13;;;16.75;81.82
58534;BME280;44109;52.398;7.024;2022-07-24T01:19:29;101702.06;;;16.69;81.91
58534;BME280;44109;52.398;7.024;2022-07-24T01:21:58;101696.47;;;16.69;82.30
58534;BME280;44109;52.398;7.024;2022-07-24T01:24:25;101695.66;;;16.69;82.39
58534;BME280;44109;52.398;7.024;2022-07-24T01:26:53;101689.25;;;16.68;82.21
58534;BME280;44109;52.398;7.024;2022-07-24T01:29:21;101694.06;;;16.68;82.20
58534;BME280;44109;52.398;7.024;2022-07-24T01:31:48;101690.84;;;16.66;82.51
58534;BME280;44109;52.398;7.024;2022-07-24T01:34:16;101686.88;;;16.67;82.42
58534;BME280;44109;52.398;7.024;2022-07-24T01:36:43;101686.44;;;16.65;82.79
58534;BME280;44109;52.398;7.024;2022-07-24T01:39:12;101682.44;;;16.66;82.62
58534;BME280;44109;52.398;7.024;2022-07-24T01:41:40;101694.03;;;16.64;82.61
58534;BME280;44109;52.398;7.024;2022-07-24T01:44:07;101687.22;;;16.62;82.63
58534;BME280;44109;52.398;7.024;2022-07-24T01:46:35;101683.19;;;16.59;82.87
58534;BME280;44109;52.398;7.024;2022-07-24T01:49:02;101691.16;;;16.57;83.02
58534;BME280;44109;52.398;7.024;2022-07-24T01:51:30;101677.16;;;16.54;83.09
58534;BME280;44109;52.398;7.024;2022-07-24T01:53:58;101676.78;;;16.55;83.00
58534;BME280;44109;52.398;7.024;2022-07-24T01:56:27;101683.56;;;16.54;83.13
58534;BME280;44109;52.398;7.024;2022-07-24T01:58:54;101677.94;;;16.51;83.07
58534;BME280;44109;52.398;7.024;2022-07-24T02:01:22;101681.94;;;16.53;83.21
58534;BME280;44109;52.398;7.024;2022-07-24T02:03:49;101677.13;;;16.50;83.24
58534;BME280;44109;52.398;7.024;2022-07-24T02:06:17;101676.34;;;16.49;83.57
58534;BME280;44109;52.398;7.024;2022-07-24T02:08:45;101673.53;;;16.49;83.57
58534;BME280;44109;52.398;7.024;2022-07-24T02:11:12;101673.06;;;16.44;83.78
58534;BME280;44109;52.398;7.024;2022-07-24T02:13:42;101674.69;;;16.45;83.49
58534;BME280;44109;52.398;7.024;2022-07-24T02:16:09;101676.31;;;16.46;83.67
58534;BME280;44109;52.398;7.024;2022-07-24T02:18:37;101661.06;;;16.43;83.63
58534;BME280;44109;52.398;7.024;2022-07-24T02:21:04;101663.50;;;16.45;83.78
58534;BME280;44109;52.398;7.024;2022-07-24T02:23:32;101665.50;;;16.44;83.57
58534;BME280;44109;52.398;7.024;2022-07-24T02:26:00;101661.50;;;16.45;83.76
58534;BME280;44109;52.398;7.024;2022-07-24T02:28:28;101668.69;;;16.46;83.62
58534;BME280;44109;52.398;7.024;2022-07-24T02:30:56;101664.31;;;16.45;83.88
58534;BME280;44109;52.398;7.024;2022-07-24T02:33:24;101662.28;;;16.42;83.87
58534;BME280;44109;52.398;7.024;2022-07-24T02:35:51;101656.25;;;16.40;83.92
58534;BME280;44109;52.398;7.024;2022-07-24T02:38:19;101655.47;;;16.43;84.10
58534;BME280;44109;52.398;7.024;2022-07-24T02:40:46;101653.88;;;16.42;84.00
58534;BME280;44109;52.398;7.024;2022-07-24T02:43:14;101641.06;;;16.41;84.06
58534;BME280;44109;52.398;7.024;2022-07-24T02:45:42;101643.88;;;16.41;84.09
58534;BME280;44109;52.398;7.024;2022-07-24T02:48:11;101641.84;;;16.38;84.36
58534;BME280;44109;52.398;7.024;2022-07-24T02:50:39;101633.06;;;16.43;84.25
58534;BME280;44109;52.398;7.024;2022-07-24T02:53:07;101652.31;;;16.45;84.38
58534;BME280;44109;52.398;7.024;2022-07-24T02:55:34;101647.50;;;16.45;84.24
58534;BME280;44109;52.398;7.024;2022-07-24T02:58:02;101637.91;;;16.46;84.00
58534;BME280;44109;52.398;7.024;2022-07-24T03:00:30;101645.91;;;16.44;83.90
58534;BME280;44109;52.398;7.024;2022-07-24T03:02:59;101647.06;;;16.43;83.99
58534;BME280;44109;52.398;7.024;2022-07-24T03:05:28;101642.66;;;16.42;83.79
58534;BME280;44109;52.398;7.024;2022-07-24T03:07:56;101640.28;;;16.44;83.79
58534;BME280;44109;52.398;7.024;2022-07-24T03:10:24;101643.47;;;16.43;83.66
58534;BME280;44109;52.398;7.024;2022-07-24T03:12:51;101645.06;;;16.40;83.74
58534;BME280;44109;52.398;7.024;2022-07-24T03:15:19;101645.44;;;16.39;83.80
58534;BME280;44109;52.398;7.024;2022-07-24T03:17:50;101641.44;;;16.36;83.73
58534;BME280;44109;52.398;7.024;2022-07-24T03:20:20;101647.44;;;16.38;83.76
58534;BME280;44109;52.398;7.024;2022-07-24T03:22:50;101637.00;;;16.32;83.73
58534;BME280;44109;52.398;7.024;2022-07-24T03:25:18;101643.41;;;16.32;83.99
58534;BME280;44109;52.398;7.024;2022-07-24T03:27:47;101633.78;;;16.26;84.17
58534;BME280;44109;52.398;7.024;2022-07-24T03:30:16;101637.81;;;16.32;84.45
58534;BME280;44109;52.398;7.024;2022-07-24T03:32:45;101629.00;;;16.34;84.39
58534;BME280;44109;52.398;7.024;2022-07-24T03:35:13;101630.59;;;16.35;84.25
58534;BME280;44109;52.398;7.024;2022-07-24T03:37:41;101627.00;;;16.34;84.14
58534;BME280;44109;52.398;7.024;2022-07-24T03:40:11;101632.19;;;16.32;84.10
58534;BME280;44109;52.398;7.024;2022-07-24T03:42:39;101631.41;;;16.32;84.25
58534;BME280;44109;52.398;7.024;2022-07-24T03:45:08;101636.19;;;16.31;84.32
58534;BME280;44109;52.398;7.024;2022-07-24T03:47:36;101631.41;;;16.32;84.39
58534;BME280;44109;52.398;7.024;2022-07-24T03:50:04;101631.44;;;16.35;84.28
58534;BME280;44109;52.398;7.024;2022-07-24T03:52:32;101633.03;;;16.36;84.30
58534;BME280;44109;52.398;7.024;2022-07-24T03:54:59;101635.84;;;16.36;84.61
58534;BME280;44109;52.398;7.024;2022-07-24T03:57:28;101642.66;;;16.42;84.33
58534;BME280;44109;52.398;7.024;2022-07-24T03:59:56;101641.09;;;16.48;84.52
58534;BME280;44109;52.398;7.024;2022-07-24T04:02:23;101628.72;;;16.49;84.60
58534;BME280;44109;52.398;7.024;2022-07-24T04:04:51;101632.34;;;16.57;84.78
58534;BME280;44109;52.398;7.024;2022-07-24T04:07:18;101636.78;;;16.62;84.80
58534;BME280;44109;52.398;7.024;2022-07-24T04:09:46;101644.00;;;16.66;84.83
58534;BME280;44109;52.398;7.024;2022-07-24T04:12:14;101630.50;;;16.72;84.87
58534;BME280;44109;52.398;7.024;2022-07-24T04:14:43;101622.91;;;16.80;84.92
58534;BME280;44109;52.398;7.024;2022-07-24T04:17:10;101630.94;;;16.85;84.90
58534;BME280;44109;52.398;7.024;2022-07-24T04:19:38;101639.38;;;16.88;84.98
58534;BME280;44109;52.398;7.024;2022-07-24T04:22:05;101640.22;;;16.96;84.90
58534;BME280;44109;52.398;7.024;2022-07-24T04:24:33;101637.03;;;17.05;85.04
58534;BME280;44109;52.398;7.024;2022-07-24T04:27:00;101637.47;;;17.14;85.02
58534;BME280;44109;52.398;7.024;2022-07-24T04:29:28;101637.13;;;17.22;85.21
58534;BME280;44109;52.398;7.024;2022-07-24T04:31:57;101628.72;;;17.33;85.29
58534;BME280;44109;52.398;7.024;2022-07-24T04:34:24;101620.34;;;17.40;85.58
58534;BME280;44109;52.398;7.024;2022-07-24T04:36:52;101629.19;;;17.49;85.46
58534;BME280;44109;52.398;7.024;2022-07-24T04:39:19;101621.97;;;17.56;85.47
58534;BME280;44109;52.398;7.024;2022-07-24T04:41:47;101612.75;;;17.66;85.71
58534;BME280;44109;52.398;7.024;2022-07-24T04:44:14;101605.56;;;17.72;85.28
58534;BME280;44109;52.398;7.024;2022-07-24T04:46:42;101612.03;;;17.76;84.93
58534;BME280;44109;52.398;7.024;2022-07-24T04:49:11;101617.22;;;17.81;85.06
58534;BME280;44109;52.398;7.024;2022-07-24T04:51:38;101616.84;;;17.86;84.74
58534;BME280;44109;52.398;7.024;2022-07-24T04:54:06;101619.22;;;17.88;83.70
58534;BME280;44109;52.398;7.024;2022-07-24T04:56:34;101609.22;;;18.01;84.45
58534;BME280;44109;52.398;7.024;2022-07-24T04:59:01;101621.25;;;18.09;83.59
58534;BME280;44109;52.398;7.024;2022-07-24T05:01:29;101613.59;;;18.20;84.17
58534;BME280;44109;52.398;7.024;2022-07-24T05:03:56;101612.78;;;18.37;85.12
58534;BME280;44109;52.398;7.024;2022-07-24T05:06:26;101629.22;;;18.49;85.57
58534;BME280;44109;52.398;7.024;2022-07-24T05:08:54;101624.38;;;18.64;85.92
58534;BME280;44109;52.398;7.024;2022-07-24T05:11:21;101614.34;;;18.70;85.81
58534;BME280;44109;52.398;7.024;2022-07-24T05:13:49;101624.72;;;18.91;86.34
58534;BME280;44109;52.398;7.024;2022-07-24T05:16:16;101625.00;;;19.15;86.39
58534;BME280;44109;52.398;7.024;2022-07-24T05:18:44;101615.31;;;19.26;84.86
58534;BME280;44109;52.398;7.024;2022-07-24T05:21:11;101618.84;;;19.45;82.42
58534;BME280;44109;52.398;7.024;2022-07-24T05:23:41;101625.91;;;19.71;83.14
58534;BME280;44109;52.398;7.024;2022-07-24T05:26:10;101624.88;;;20.02;83.89
58534;BME280;44109;52.398;7.024;2022-07-24T05:28:37;101625.78;;;20.34;84.85
58534;BME280;44109;52.398;7.024;2022-07-24T05:31:05;101615.69;;;20.40;79.02
58534;BME280;44109;52.398;7.024;2022-07-24T05:33:34;101618.19;;;20.72;80.66
58534;BME280;44109;52.398;7.024;2022-07-24T05:36:02;101618.16;;;21.06;79.08
58534;BME280;44109;52.398;7.024;2022-07-24T05:38:29;101621.78;;;21.41;80.91
58534;BME280;44109;52.398;7.024;2022-07-24T05:40:58;101619.97;;;21.54;76.21
58534;BME280;44109;52.398;7.024;2022-07-24T05:43:28;101616.16;;;21.91;78.99
58534;BME280;44109;52.398;7.024;2022-07-24T05:45:56;101621.25;;;22.00;72.61
58534;BME280;44109;52.398;7.024;2022-07-24T05:48:23;101623.78;;;22.41;75.07
58534;BME280;44109;52.398;7.024;2022-07-24T05:50:51;101627.69;;;22.47;67.17
58534;BME280;44109;52.398;7.024;2022-07-24T05:53:19;101628.66;;;23.04;72.08
58534;BME280;44109;52.398;7.024;2022-07-24T05:55:46;101620.41;;;23.29;70.15
58534;BME280;44109;52.398;7.024;2022-07-24T05:58:15;101623.94;;;23.70;69.11
58534;BME280;44109;52.398;7.024;2022-07-24T06:00:44;101613.34;;;24.07;66.06
58534;BME280;44109;52.398;7.024;2022-07-24T06:03:12;101625.09;;;24.38;64.05
58534;BME280;44109;52.398;7.024;2022-07-24T06:05:40;101621.19;;;24.77;60.79
58534;BME280;44109;52.398;7.024;2022-07-24T06:08:07;101609.91;;;25.02;61.78
58534;BME280;44109;52.398;7.024;2022-07-24T06:10:35;101614.66;;;25.35;60.03
58534;BME280;44109;52.398;7.024;2022-07-24T06:13:03;101613.41;;;25.74;59.65
58534;BME280;44109;52.398;7.024;2022-07-24T06:15:32;101607.28;;;25.63;55.89
58534;BME280;44109;52.398;7.024;2022-07-24T06:18:00;101596.66;;;26.01;54.45
58534;BME280;44109;52.398;7.024;2022-07-24T06:20:27;101600.13;;;26.31;54.07
58534;BME280;44109;52.398;7.024;2022-07-24T06:22:55;101586.03;;;26.62;56.68
58534;BME280;44109;52.398;7.024;2022-07-24T06:25:22;101603.31;;;27.12;54.51
58534;BME280;44109;52.398;7.024;2022-07-24T06:27:50;101601.78;;;27.29;53.61
58534;BME280;44109;52.398;7.024;2022-07-24T06:30:21;101594.03;;;27.70;53.20
58534;BME280;44109;52.398;7.024;2022-07-24T06:32:53;101597.25;;;27.72;51.90
58534;BME280;44109;52.398;7.024;2022-07-24T06:35:22;101600.28;;;27.77;52.05
58534;BME280;44109;52.398;7.024;2022-07-24T06:37:50;101595.41;;;27.96;51.29
58534;BME280;44109;52.398;7.024;2022-07-24T06:40:18;101594.53;;;28.45;52.50
58534;BME280;44109;52.398;7.024;2022-07-24T06:42:48;101596.13;;;28.55;50.04
58534;BME280;44109;52.398;7.024;2022-07-24T06:45:16;101596.22;;;28.89;53.21
58534;BME280;44109;52.398;7.024;2022-07-24T06:47:44;101596.06;;;29.01;49.27
58534;BME280;44109;52.398;7.024;2022-07-24T06:50:13;101582.44;;;28.87;45.92
58534;BME280;44109;52.398;7.024;2022-07-24T06:52:41;101601.72;;;29.20;49.24
58534;BME280;44109;52.398;7.024;2022-07-24T06:55:09;101600.28;;;29.76;48.56
58534;BME280;44109;52.398;7.024;2022-07-24T06:57:36;101594.97;;;29.83;45.93
58534;BME280;44109;52.398;7.024;2022-07-24T07:00:06;101599.69;;;30.20;46.76
58534;BME280;44109;52.398;7.024;2022-07-24T07:02:34;101602.09;;;30.36;43.37
58534;BME280;44109;52.398;7.024;2022-07-24T07:05:03;101603.44;;;30.65;45.06
58534;BME280;44109;52.398;7.024;2022-07-24T07:07:35;101605.69;;;30.99;44.60
58534;BME280;44109;52.398;7.024;2022-07-24T07:10:04;101615.06;;;31.15;45.58
58534;BME280;44109;52.398;7.024;2022-07-24T07:12:33;101611.59;;;31.40;43.21
58534;BME280;44109;52.398;7.024;2022-07-24T07:15:01;101608.75;;;31.40;42.43
58534;BME280;44109;52.398;7.024;2022-07-24T07:17:28;101617.13;;;31.94;43.41
58534;BME280;44109;52.398;7.024;2022-07-24T07:19:56;101609.63;;;32.17;40.24
58534;BME280;44109;52.398;7.024;2022-07-24T07:22:24;101608.00;;;30.32;40.24
58534;BME280;44109;52.398;7.024;2022-07-24T07:24:52;101617.56;;;31.07;44.48
58534;BME280;44109;52.398;7.024;2022-07-24T07:27:20;101622.78;;;30.94;41.99
58534;BME280;44109;52.398;7.024;2022-07-24T07:29:48;101613.34;;;32.02;39.38
58534;BME280;44109;52.398;7.024;2022-07-24T07:32:15;101618.09;;;32.46;40.57
58534;BME280;44109;52.398;7.024;2022-07-24T07:34:43;101614.84;;;30.74;39.54
58534;BME280;44109;52.398;7.024;2022-07-24T07:37:10;101616.94;;;30.01;42.19
58534;BME280;44109;52.398;7.024;2022-07-24T07:39:38;101618.31;;;30.78;42.66
58534;BME280;44109;52.398;7.024;2022-07-24T07:42:07;101614.53;;;30.33;40.04
58534;BME280;44109;52.398;7.024;2022-07-24T07:44:34;101624.19;;;30.60;41.59
58534;BME280;44109;52.398;7.024;2022-07-24T07:47:02;101617.81;;;29.50;43.24
58534;BME280;44109;52.398;7.024;2022-07-24T07:49:30;101608.66;;;31.70;40.40
58534;BME280;44109;52.398;7.024;2022-07-24T07:51:57;101607.75;;;31.28;41.95
58534;BME280;44109;52.398;7.024;2022-07-24T07:54:25;101607.66;;;32.28;39.71
58534;BME280;44109;52.398;7.024;2022-07-24T07:56:53;101614.94;;;31.53;40.19
58534;BME280;44109;52.398;7.024;2022-07-24T07:59:22;101618.09;;;32.46;38.54
58534;BME280;44109;52.398;7.024;2022-07-24T08:01:49;101614.28;;;31.29;39.02
58534;BME280;44109;52.398;7.024;2022-07-24T08:04:18;101615.06;;;30.85;40.48
58534;BME280;44109;52.398;7.024;2022-07-24T08:06:45;101623.28;;;30.53;41.80
58534;BME280;44109;52.398;7.024;2022-07-24T08:09:13;101619.72;;;29.53;42.06
58534;BME280;44109;52.398;7.024;2022-07-24T08:11:40;101620.28;;;29.76;42.16
58534;BME280;44109;52.398;7.024;2022-07-24T08:14:08;101613.91;;;30.29;42.26
58534;BME280;44109;52.398;7.024;2022-07-24T08:16:37;101622.28;;;30.18;41.83
58534;BME280;44109;52.398;7.024;2022-07-24T08:19:05;101621.47;;;29.09;45.20
58534;BME280;44109;52.398;7.024;2022-07-24T08:21:32;101614.56;;;29.76;41.32
58534;BME280;44109;52.398;7.024;2022-07-24T08:24:00;101613.09;;;29.38;43.51
58534;BME280;44109;52.398;7.024;2022-07-24T08:26:29;101617.03;;;28.89;45.04
58534;BME280;44109;52.398;7.024;2022-07-24T08:28:57;101616.81;;;29.72;44.21
58534;BME280;44109;52.398;7.024;2022-07-24T08:31:25;101615.69;;;30.26;42.21
58534;BME280;44109;52.398;7.024;2022-07-24T08:33:54;101604.78;;;29.92;42.78
58534;BME280;44109;52.398;7.024;2022-07-24T08:36:21;101594.97;;;29.83;43.14
58534;BME280;44109;52.398;7.024;2022-07-24T08:38:49;101597.69;;;30.02;42.70
58534;BME280;44109;52.398;7.024;2022-07-24T08:41:17;101601.03;;;31.17;44.24
58534;BME280;44109;52.398;7.024;2022-07-24T08:43:45;101598.66;;;31.15;43.62
58534;BME280;44109;52.398;7.024;2022-07-24T08:46:14;101594.22;;;28.71;44.45
58534;BME280;44109;52.398;7.024;2022-07-24T08:48:43;101584.47;;;29.47;44.56
58534;BME280;44109;52.398;7.024;2022-07-24T08:51:13;101590.50;;;28.89;44.12
58534;BME280;44109;52.398;7.024;2022-07-24T08:53:43;101591.34;;;28.43;45.69
58534;BME280;44109;52.398;7.024;2022-07-24T08:56:11;101594.16;;;28.25;46.89
58534;BME280;44109;52.398;7.024;2022-07-24T08:58:39;101601.19;;;28.61;44.79
58534;BME280;44109;52.398;7.024;2022-07-24T09:01:08;101597.59;;;29.30;45.11
58534;BME280;44109;52.398;7.024;2022-07-24T09:03:42;101593.53;;;28.94;44.04
58534;BME280;44109;52.398;7.024;2022-07-24T09:06:13;101596.25;;;28.70;44.47
58534;BME280;44109;52.398;7.024;2022-07-24T09:08:43;101597.34;;;29.00;45.98
58534;BME280;44109;52.398;7.024;2022-07-24T09:11:24;101597.69;;;28.38;45.19
58534;BME280;44109;52.398;7.024;2022-07-24T09:13:59;101593.25;;;28.46;46.08
58534;BME280;44109;52.398;7.024;2022-07-24T09:16:46;101594.81;;;29.02;45.06
58534;BME280;44109;52.398;7.024;2022-07-24T09:19:14;101588.84;;;28.36;43.76
58534;BME280;44109;52.398;7.024;2022-07-24T09:21:43;101596.97;;;27.88;44.76
58534;BME280;44109;52.398;7.024;2022-07-24T09:24:17;101591.34;;;28.43;45.74
58534;BME280;44109;52.398;7.024;2022-07-24T09:26:48;101585.03;;;28.67;46.29
58534;BME280;44109;52.398;7.024;2022-07-24T09:29:21;101595.47;;;28.70;45.83
58534;BME280;44109;52.398;7.024;2022-07-24T09:31:55;101586.22;;;28.01;45.09
58534;BME280;44109;52.398;7.024;2022-07-24T09:34:25;101597.38;;;27.68;45.84
58534;BME280;44109;52.398;7.024;2022-07-24T09:36:58;101589.47;;;27.32;47.72
58534;BME280;44109;52.398;7.024;2022-07-24T09:39:29;101592.81;;;27.71;47.22
58534;BME280;44109;52.398;7.024;2022-07-24T09:42:00;101580.13;;;27.31;44.80
58534;BME280;44109;52.398;7.024;2022-07-24T09:44:29;101584.84;;;27.66;48.61
58534;BME280;44109;52.398;7.024;2022-07-24T09:47:00;101573.00;;;27.67;47.93
58534;BME280;44109;52.398;7.024;2022-07-24T09:49:30;101582.94;;;27.63;46.61
58534;BME280;44109;52.398;7.024;2022-07-24T09:52:21;101578.84;;;27.64;46.46
58534;BME280;44109;52.398;7.024;2022-07-24T09:55:00;101569.09;;;27.83;47.39
58534;BME280;44109;52.398;7.024;2022-07-24T09:57:29;101573.06;;;27.86;45.54
58534;BME280;44109;52.398;7.024;2022-07-24T10:00:01;101566.72;;;27.10;46.03
58534;BME280;44109;52.398;7.024;2022-07-24T10:02:33;101570.47;;;27.29;46.07
58534;BME280;44109;52.398;7.024;2022-07-24T10:05:03;101564.09;;;26.94;47.41
58534;BME280;44109;52.398;7.024;2022-07-24T10:07:37;101562.41;;;27.05;48.02
58534;BME280;44109;52.398;7.024;2022-07-24T10:10:07;101573.28;;;27.69;49.39
58534;BME280;44109;52.398;7.024;2022-07-24T10:12:36;101555.09;;;27.67;45.94
58534;BME280;44109;52.398;7.024;2022-07-24T10:15:05;101560.41;;;27.15;46.31
58534;BME280;44109;52.398;7.024;2022-07-24T10:17:54;101558.41;;;27.25;44.91
58534;BME280;44109;52.398;7.024;2022-07-24T10:20:46;101555.09;;;27.26;44.73
58534;BME280;44109;52.398;7.024;2022-07-24T10:23:22;101549.25;;;27.21;44.90
58534;BME280;44109;52.398;7.024;2022-07-24T10:25:57;101560.16;;;27.63;44.95
58534;BME280;44109;52.398;7.024;2022-07-24T10:28:40;101554.19;;;27.39;44.01
58534;BME280;44109;52.398;7.024;2022-07-24T10:31:10;101547.31;;;27.58;44.40
58534;BME280;44109;52.398;7.024;2022-07-24T10:33:43;101543.41;;;27.74;44.55
58534;BME280;44109;52.398;7.024;2022-07-24T10:36:32;101540.81;;;27.58;44.89
58534;BME280;44109;52.398;7.024;2022-07-24T10:39:13;101535.50;;;27.78;43.39
58534;BME280;44109;52.398;7.024;2022-07-24T10:42:00;101525.03;;;27.84;44.81
58534;BME280;44109;52.398;7.024;2022-07-24T10:44:28;101530.13;;;27.80;43.16
58534;BME280;44109;52.398;7.024;2022-07-24T10:46:57;101526.50;;;28.07;44.43
58534;BME280;44109;52.398;7.024;2022-07-24T10:49:37;101525.03;;;27.75;42.96
58534;BME280;44109;52.398;7.024;2022-07-24T10:52:10;101529.72;;;27.60;43.63
58534;BME280;44109;52.398;7.024;2022-07-24T10:54:40;101533.59;;;27.84;43.17
58534;BME280;44109;52.398;7.024;2022-07-24T10:57:08;101526.31;;;27.92;42.61
58534;BME280;44109;52.398;7.024;2022-07-24T10:59:37;101525.03;;;27.84;42.75
58534;BME280;44109;52.398;7.024;2022-07-24T11:02:27;101526.88;;;27.60;43.28
58534;BME280;44109;52.398;7.024;2022-07-24T11:05:23;101525.13;;;27.53;41.97
58534;BME280;44109;52.398;7.024;2022-07-24T11:11:17;101528.88;;;27.90;44.56
58534;BME280;44109;52.398;7.024;2022-07-24T11:13:48;101535.84;;;27.98;43.51
58534;BME280;44109;52.398;7.024;2022-07-24T11:16:19;101538.72;;;28.26;44.16
58534;BME280;44109;52.398;7.024;2022-07-24T11:19:28;101528.25;;;28.41;43.19
58534;BME280;44109;52.398;7.024;2022-07-24T11:22:10;101528.25;;;28.23;43.08
58534;BME280;44109;52.398;7.024;2022-07-24T11:27:57;101519.38;;;28.21;43.19
58534;BME280;44109;52.398;7.024;2022-07-24T11:30:41;101528.88;;;28.09;42.63
58534;BME280;44109;52.398;7.024;2022-07-24T11:33:10;101523.81;;;28.13;42.88
58534;BME280;44109;52.398;7.024;2022-07-24T11:35:39;101518.75;;;28.44;43.84
58534;BME280;44109;52.398;7.024;2022-07-24T11:38:07;101512.25;;;28.53;43.90
58534;BME280;44109;52.398;7.024;2022-07-24T11:40:35;101508.13;;;28.45;43.00
58534;BME280;44109;52.398;7.024;2022-07-24T11:43:06;101506.19;;;28.60;41.49
58534;BME280;44109;52.398;7.024;2022-07-24T11:45:35;101500.53;;;28.93;41.52
58534;BME280;44109;52.398;7.024;2022-07-24T11:48:03;101508.53;;;28.80;42.52
58534;BME280;44109;52.398;7.024;2022-07-24T11:50:31;101492.25;;;29.14;41.97
58534;BME280;44109;52.398;7.024;2022-07-24T11:53:00;101497.13;;;29.46;44.10
58534;BME280;44109;52.398;7.024;2022-07-24T11:55:32;101487.03;;;29.36;40.47
58534;BME280;44109;52.398;7.024;2022-07-24T11:58:00;101489.72;;;29.06;41.28
58534;BME280;44109;52.398;7.024;2022-07-24T12:00:29;101496.06;;;29.44;41.26
58534;BME280;44109;52.398;7.024;2022-07-24T12:02:57;101493.44;;;29.31;42.05
58534;BME280;44109;52.398;7.024;2022-07-24T12:05:28;101495.47;;;29.64;42.27
58534;BME280;44109;52.398;7.024;2022-07-24T12:07:59;101489.94;;;29.27;41.52
58534;BME280;44109;52.398;7.024;2022-07-24T12:10:29;101489.94;;;29.60;39.98
58534;BME280;44109;52.398;7.024;2022-07-24T12:12:57;101482.13;;;29.37;40.82
58534;BME280;44109;52.398;7.024;2022-07-24T12:15:26;101477.84;;;29.32;41.37
58534;BME280;44109;52.398;7.024;2022-07-24T12:17:57;101487.50;;;29.68;42.49
58534;BME280;44109;52.398;7.024;2022-07-24T12:20:27;101476.13;;;29.59;41.13
58534;BME280;44109;52.398;7.024;2022-07-24T12:22:58;101472.81;;;29.75;40.13
58534;BME280;44109;52.398;7.024;2022-07-24T12:25:28;101476.63;;;29.81;41.28
58534;BME280;44109;52.398;7.024;2022-07-24T12:28:04;101470.75;;;29.99;42.62
58534;BME280;44109;52.398;7.024;2022-07-24T12:30:34;101467.28;;;30.10;41.71
58534;BME280;44109;52.398;7.024;2022-07-24T12:33:07;101463.84;;;30.06;42.48
58534;BME280;44109;52.398;7.024;2022-07-24T12:35:53;101460.25;;;29.96;43.26
58534;BME280;44109;52.398;7.024;2022-07-24T12:38:27;101460.09;;;30.00;40.71
58534;BME280;44109;52.398;7.024;2022-07-24T12:41:05;101460.72;;;29.80;41.91
58534;BME280;44109;52.398;7.024;2022-07-24T12:43:46;101450.22;;;30.01;41.73
58534;BME280;44109;52.398;7.024;2022-07-24T12:46:15;101457.06;;;30.18;42.23
58534;BME280;44109;52.398;7.024;2022-07-24T12:48:57;101451.84;;;30.17;41.45
58534;BME280;44109;52.398;7.024;2022-07-24T12:51:26;101447.09;;;30.14;42.13
58534;BME280;44109;52.398;7.024;2022-07-24T12:54:15;101444.34;;;30.34;41.93
58534;BME280;44109;52.398;7.024;2022-07-24T12:56:45;101447.81;;;30.23;39.98
58534;BME280;44109;52.398;7.024;2022-07-24T12:59:24;101434.69;;;30.17;40.46
58534;BME280;44109;52.398;7.024;2022-07-24T13:01:55;101433.75;;;30.11;39.57
58534;BME280;44109;52.398;7.024;2022-07-24T13:04:27;101436.75;;;30.16;40.08
58534;BME280;44109;52.398;7.024;2022-07-24T13:06:56;101437.91;;;30.69;40.30
58534;BME280;44109;52.398;7.024;2022-07-24T13:09:26;101430.91;;;30.70;39.40